createdAt,value
2017-05-12T13:19:38.112Z,23.10
2017-05-12T13:22:06.479Z,22.90
2017-05-12T13:24:34.798Z,22.90
2017-05-12T13:27:03.856Z,22.80
2017-05-12T13:29:32.186Z,23.00
2017-05-12T13:32:00.499Z,22.60
2017-05-12T13:34:28.810Z,22.80
2017-05-12T13:36:57.123Z,22.80
2017-05-12T13:39:25.441Z,22.90
2017-05-12T13:41:53.847Z,22.90
2017-05-12T13:44:22.163Z,22.70
2017-05-12T13:46:50.494Z,22.20
2017-05-12T13:49:18.821Z,22.10
2017-05-12T13:51:47.151Z,21.90
2017-05-12T13:54:15.508Z,22.10
2017-05-12T13:56:43.840Z,22.20
2017-05-12T13:59:12.897Z,22.20
2017-05-12T14:01:41.210Z,22.20
2017-05-12T14:04:10.262Z,22.10
2017-05-12T14:06:38.571Z,21.80
2017-05-12T14:09:06.936Z,22.20
2017-05-12T14:11:35.314Z,22.40
2017-05-12T14:14:03.618Z,22.30
2017-05-12T14:16:32.685Z,22.20
2017-05-12T14:19:02.030Z,22.50
2017-05-12T14:21:30.382Z,22.00
2017-05-12T14:23:58.723Z,22.10
2017-05-12T14:26:27.066Z,21.60
2017-05-12T14:28:55.384Z,21.80
2017-05-12T14:31:23.695Z,22.10
2017-05-12T14:33:52.062Z,21.60
2017-05-12T14:36:20.443Z,21.80
2017-05-12T14:38:48.754Z,21.50
2017-05-12T14:41:17.823Z,21.50
2017-05-12T14:43:46.128Z,21.80
2017-05-12T14:46:15.183Z,21.30
2017-05-12T14:48:43.582Z,21.60
2017-05-12T14:51:11.890Z,21.80
2017-05-12T14:53:40.334Z,22.00
2017-05-12T14:56:08.707Z,21.70
2017-05-12T14:58:37.087Z,21.50
2017-05-12T15:01:05.401Z,21.60
2017-05-12T15:03:34.458Z,21.50
2017-05-12T15:06:02.847Z,21.70
2017-05-12T15:08:31.232Z,21.20
2017-05-12T15:10:59.539Z,21.10
2017-05-12T15:13:28.608Z,20.90
2017-05-12T15:15:56.927Z,21.10
2017-05-12T15:18:25.281Z,21.00
2017-05-12T15:20:54.345Z,21.00
2017-05-12T15:23:22.658Z,20.90
2017-05-12T15:25:51.731Z,20.70
2017-05-12T15:28:20.106Z,20.50
2017-05-12T15:30:48.494Z,20.50
2017-05-12T15:33:16.812Z,20.40
2017-05-12T15:35:45.162Z,20.20
2017-05-12T15:38:14.251Z,20.10
2017-05-12T15:40:42.562Z,19.70
2017-05-12T15:43:10.894Z,19.60
2017-05-12T15:45:39.221Z,19.50
2017-05-12T15:48:07.531Z,19.60
2017-05-12T15:50:35.838Z,19.20
2017-05-12T15:53:04.216Z,19.30
2017-05-12T15:55:32.586Z,19.10
2017-05-12T15:58:00.894Z,18.90
2017-05-12T16:00:29.966Z,18.90
2017-05-12T16:02:58.362Z,18.80
2017-05-12T16:05:26.831Z,18.80
2017-05-12T16:07:55.218Z,18.80
2017-05-12T16:10:23.535Z,18.70
2017-05-12T16:12:51.843Z,18.80
2017-05-12T16:15:20.152Z,18.60
2017-05-12T16:17:48.484Z,18.50
2017-05-12T16:20:16.789Z,18.50
2017-05-12T16:22:45.099Z,18.40
2017-05-12T16:25:13.422Z,18.20
2017-05-12T16:27:41.765Z,18.40
2017-05-12T16:30:10.827Z,18.30
2017-05-12T16:32:39.181Z,18.40
2017-05-12T16:35:07.498Z,18.40
2017-05-12T16:37:35.878Z,18.70
2017-05-12T16:40:04.506Z,18.80
2017-05-12T16:42:32.847Z,18.90
2017-05-12T16:45:01.149Z,18.70
2017-05-12T16:47:30.222Z,18.70
2017-05-12T16:49:58.596Z,18.50
2017-05-12T16:52:26.910Z,18.70
2017-05-12T16:54:55.954Z,18.60
2017-05-12T16:57:24.267Z,18.60
2017-05-12T16:59:52.622Z,18.70
2017-05-12T17:02:21.026Z,18.90
2017-05-12T17:04:50.203Z,18.70
2017-05-12T17:07:18.582Z,18.90
2017-05-12T17:09:46.968Z,18.90
2017-05-12T17:12:15.287Z,18.80
2017-05-12T17:14:43.598Z,18.80
2017-05-12T17:17:12.008Z,18.80
2017-05-12T17:19:40.665Z,18.60
2017-05-12T17:22:08.971Z,18.60
2017-05-12T17:24:37.344Z,18.60
2017-05-12T17:27:05.724Z,18.50
2017-05-12T17:29:34.194Z,18.60
2017-05-12T17:32:02.506Z,18.70
2017-05-12T17:34:31.567Z,18.70
2017-05-12T17:36:59.949Z,18.50
2017-05-12T17:39:28.355Z,18.40
2017-05-12T17:41:57.421Z,18.10
2017-05-12T17:44:25.810Z,18.00
2017-05-12T17:46:54.240Z,18.00
2017-05-12T17:49:23.330Z,17.90
2017-05-12T17:51:52.375Z,18.10
2017-05-12T17:54:20.785Z,18.00
2017-05-12T17:56:49.098Z,18.00
2017-05-12T17:59:17.405Z,18.00
2017-05-12T18:01:45.715Z,18.10
2017-05-12T18:04:14.096Z,18.00
2017-05-12T18:06:42.407Z,17.90
2017-05-12T18:09:10.719Z,17.90
2017-05-12T18:11:39.126Z,17.80
2017-05-12T18:14:07.529Z,17.70
2017-05-12T18:16:36.590Z,17.50
2017-05-12T18:19:04.989Z,17.50
2017-05-12T18:21:33.291Z,17.40
2017-05-12T18:24:02.350Z,17.40
2017-05-12T18:26:30.742Z,17.40
2017-05-12T18:28:59.115Z,17.30
2017-05-12T18:31:27.422Z,17.10
2017-05-12T18:33:56.483Z,17.10
2017-05-12T18:36:24.784Z,17.20
2017-05-12T18:38:53.103Z,17.20
2017-05-12T18:41:21.423Z,17.00
2017-05-12T18:43:49.810Z,17.00
2017-05-12T18:46:18.122Z,17.00
2017-05-12T18:48:47.282Z,16.90
2017-05-12T18:51:15.586Z,16.90
2017-05-12T18:53:44.645Z,16.90
2017-05-12T18:56:12.958Z,16.90
2017-05-12T18:58:42.023Z,16.80
2017-05-12T19:01:10.414Z,16.70
2017-05-12T19:03:38.712Z,16.40
2017-05-12T19:06:07.020Z,16.50
2017-05-12T19:08:35.350Z,16.60
2017-05-12T19:11:03.651Z,16.50
2017-05-12T19:13:32.702Z,16.40
2017-05-12T19:16:01.035Z,16.30
2017-05-12T19:18:30.088Z,16.20
2017-05-12T19:20:58.488Z,16.20
2017-05-12T19:23:26.807Z,16.20
2017-05-12T19:25:55.120Z,16.20
2017-05-12T19:28:23.426Z,16.20
2017-05-12T19:30:51.734Z,16.20
2017-05-12T19:33:20.046Z,16.00
2017-05-12T19:35:48.351Z,16.10
2017-05-12T19:38:16.734Z,16.20
2017-05-12T19:40:45.032Z,16.10
2017-05-12T19:43:14.090Z,16.10
2017-05-12T19:45:42.394Z,16.00
2017-05-12T19:48:10.769Z,15.90
2017-05-12T19:50:39.134Z,15.90
2017-05-12T19:53:07.448Z,15.90
2017-05-12T19:58:28.206Z,15.90
2017-05-12T20:00:56.541Z,15.70
2017-05-12T20:03:25.618Z,15.70
2017-05-12T20:05:54.015Z,15.70
2017-05-12T20:08:22.330Z,15.70
2017-05-12T20:10:50.638Z,15.80
2017-05-12T20:13:18.947Z,15.80
2017-05-12T20:15:47.254Z,15.80
2017-05-12T20:18:15.603Z,15.70
2017-05-12T20:20:44.000Z,15.60
2017-05-12T20:23:13.055Z,15.50
2017-05-12T20:25:41.451Z,15.60
2017-05-12T20:28:09.762Z,15.50
2017-05-12T20:30:38.098Z,15.50
2017-05-12T20:33:07.827Z,15.60
2017-05-12T20:35:36.149Z,15.60
2017-05-12T20:38:04.475Z,15.50
2017-05-12T20:40:32.799Z,15.50
2017-05-12T20:43:01.160Z,15.40
2017-05-12T20:45:30.228Z,15.30
2017-05-12T20:47:58.562Z,15.30
2017-05-12T20:50:26.871Z,15.30
2017-05-12T20:52:55.183Z,15.30
2017-05-12T20:55:23.495Z,15.20
2017-05-12T20:57:51.863Z,15.00
2017-05-12T21:00:20.180Z,14.90
2017-05-12T21:02:48.532Z,14.80
2017-05-12T21:05:16.864Z,14.60
2017-05-12T21:07:45.306Z,14.60
2017-05-12T21:10:13.618Z,14.50
2017-05-12T21:12:41.935Z,14.50
2017-05-12T21:15:10.289Z,14.50
2017-05-12T21:17:38.604Z,14.40
2017-05-12T21:20:06.942Z,14.30
2017-05-12T21:22:35.320Z,14.40
2017-05-12T21:25:03.698Z,14.20
2017-05-12T21:27:32.013Z,14.20
2017-05-12T21:30:00.356Z,14.20
2017-05-12T21:32:28.744Z,14.10
2017-05-12T21:34:57.068Z,14.10
2017-05-12T21:37:25.376Z,14.10
2017-05-12T21:39:53.685Z,14.00
2017-05-12T21:42:22.000Z,13.90
2017-05-12T21:44:50.304Z,13.90
2017-05-12T21:47:18.707Z,13.90
2017-05-12T21:49:47.086Z,13.90
2017-05-12T21:52:15.408Z,13.90
2017-05-12T21:54:43.738Z,13.80
2017-05-12T21:57:12.139Z,13.80
2017-05-12T21:59:41.227Z,13.80
2017-05-12T22:02:09.540Z,13.80
2017-05-12T22:04:37.901Z,13.60
2017-05-12T22:07:06.958Z,13.60
2017-05-12T22:09:35.284Z,13.70
2017-05-12T22:12:04.355Z,13.60
2017-05-12T22:14:32.735Z,13.80
2017-05-12T22:17:01.119Z,13.90
2017-05-12T22:19:29.490Z,14.10
2017-05-12T22:21:57.871Z,14.20
2017-05-12T22:24:26.254Z,14.30
2017-05-12T22:26:54.578Z,14.20
2017-05-12T22:29:22.883Z,14.10
2017-05-12T22:31:51.288Z,14.10
2017-05-12T22:34:19.666Z,14.00
2017-05-12T22:36:47.989Z,14.00
2017-05-12T22:39:16.408Z,13.90
2017-05-12T22:41:44.799Z,13.80
2017-05-12T22:44:13.258Z,13.70
2017-05-12T22:46:41.599Z,13.70
2017-05-12T22:49:10.658Z,13.60
2017-05-12T22:51:39.047Z,13.60
2017-05-12T22:54:07.359Z,13.60
2017-05-12T22:56:35.739Z,13.50
2017-05-12T22:59:04.134Z,13.30
2017-05-12T23:01:32.442Z,13.30
2017-05-12T23:04:00.764Z,13.30
2017-05-12T23:06:29.834Z,13.20
2017-05-12T23:08:58.205Z,13.20
2017-05-12T23:11:26.604Z,13.20
2017-05-12T23:13:54.975Z,13.20
2017-05-12T23:16:23.291Z,13.10
2017-05-12T23:18:51.609Z,13.10
2017-05-12T23:21:19.920Z,13.10
2017-05-12T23:23:48.222Z,13.00
2017-05-12T23:26:17.279Z,13.00
2017-05-12T23:28:45.600Z,13.00
2017-05-12T23:31:14.009Z,12.90
2017-05-12T23:33:42.342Z,12.90
2017-05-12T23:36:11.418Z,12.80
2017-05-12T23:38:39.730Z,12.80
2017-05-12T23:41:08.085Z,12.70
2017-05-12T23:43:36.458Z,12.70
2017-05-12T23:46:04.778Z,12.60
2017-05-12T23:48:33.100Z,12.60
2017-05-12T23:51:01.495Z,12.60
2017-05-12T23:53:29.882Z,12.60
2017-05-12T23:55:58.194Z,12.50
2017-05-12T23:58:26.502Z,12.50
